createdAt,value
2022-09-06T00:01:15.182Z,0.57
2022-09-06T00:03:42.555Z,0.80
2022-09-06T00:06:15.105Z,0.60
2022-09-06T00:08:49.994Z,0.43
2022-09-06T00:11:18.583Z,0.68
2022-09-06T00:13:46.181Z,0.73
2022-09-06T00:16:22.183Z,0.70
2022-09-06T00:25:35.003Z,0.40
2022-09-06T00:28:28.730Z,0.95
2022-09-06T00:31:00.045Z,0.52
2022-09-06T00:33:26.845Z,0.50
2022-09-06T00:36:01.509Z,0.32
2022-09-06T00:38:28.390Z,0.63
2022-09-06T00:40:58.696Z,1.05
2022-09-06T00:43:33.280Z,0.50
2022-09-06T00:46:07.807Z,0.50
2022-09-06T00:54:30.931Z,0.82
2022-09-06T00:56:58.943Z,0.40
2022-09-06T00:59:45.965Z,0.57
2022-09-06T01:02:13.959Z,0.70
2022-09-06T01:04:43.907Z,0.47
2022-09-06T01:07:41.106Z,1.55
2022-09-06T01:10:39.798Z,0.70
2022-09-06T01:13:23.661Z,0.60
2022-09-06T01:16:06.096Z,0.75
2022-09-06T01:18:51.189Z,0.70
2022-09-06T01:21:35.666Z,0.63
2022-09-06T01:24:18.014Z,0.68
2022-09-06T01:26:53.791Z,0.60
2022-09-06T01:29:56.504Z,0.60
2022-09-06T01:32:41.666Z,0.70
2022-09-06T01:35:35.588Z,0.45
2022-09-06T01:38:03.325Z,0.45
2022-09-06T01:40:31.936Z,0.52
2022-09-06T01:43:10.189Z,0.70
2022-09-06T01:46:04.368Z,0.73
2022-09-06T01:51:49.188Z,0.57
2022-09-06T01:54:45.335Z,0.60
2022-09-06T01:57:41.033Z,0.45
2022-09-06T02:00:11.482Z,0.80
2022-09-06T02:03:00.817Z,0.47
2022-09-06T02:05:36.057Z,0.60
2022-09-06T02:08:10.039Z,0.40
2022-09-06T02:10:59.497Z,0.55
2022-09-06T02:13:49.903Z,0.45
2022-09-06T02:16:25.959Z,0.47
2022-09-06T02:19:06.157Z,0.60
2022-09-06T02:21:40.772Z,0.70
2022-09-06T02:24:19.410Z,0.55
2022-09-06T02:26:47.503Z,0.50
2022-09-06T02:29:16.596Z,1.23
2022-09-06T02:31:47.445Z,0.90
2022-09-06T02:34:29.734Z,0.80
2022-09-06T02:36:57.435Z,0.85
2022-09-06T02:39:27.312Z,1.20
2022-09-06T02:44:45.653Z,1.15
2022-09-06T02:47:13.971Z,1.23
2022-09-06T02:50:24.407Z,1.02
2022-09-06T02:56:28.896Z,1.55
2022-09-06T02:58:56.701Z,1.50
2022-09-06T03:01:23.472Z,2.08
2022-09-06T03:03:51.361Z,1.92
2022-09-06T03:06:18.286Z,1.30
2022-09-06T03:08:44.972Z,2.70
2022-09-06T03:11:12.624Z,2.03
2022-09-06T03:13:39.313Z,2.40
2022-09-06T03:16:06.032Z,2.22
2022-09-06T03:18:33.141Z,2.17
2022-09-06T03:21:00.402Z,1.98
2022-09-06T03:23:28.778Z,2.55
2022-09-06T03:25:56.007Z,2.72
2022-09-06T03:28:23.312Z,3.28
2022-09-06T03:30:51.804Z,3.00
2022-09-06T03:33:20.162Z,3.35
2022-09-06T03:35:58.966Z,3.80
2022-09-06T03:38:28.305Z,3.80
2022-09-06T03:41:04.768Z,4.20
2022-09-06T03:43:32.271Z,4.97
2022-09-06T03:45:59.030Z,4.85
2022-09-06T03:48:29.380Z,5.43
2022-09-06T03:51:00.142Z,5.72
2022-09-06T03:53:42.616Z,4.57
2022-09-06T03:56:09.324Z,5.82
2022-09-06T03:58:36.734Z,5.90
2022-09-06T04:01:06.644Z,6.22
2022-09-06T04:03:34.147Z,6.88
2022-09-06T04:06:03.746Z,6.85
2022-09-06T04:08:32.338Z,7.30
2022-09-06T04:11:06.791Z,6.40
2022-09-06T04:13:37.386Z,7.50
2022-09-06T04:16:07.219Z,6.85
2022-09-06T04:18:34.739Z,8.80
2022-09-06T04:21:02.373Z,9.38
2022-09-06T04:23:30.091Z,7.38
2022-09-06T04:26:05.870Z,8.73
2022-09-06T04:28:33.180Z,7.93
2022-09-06T04:31:04.729Z,7.97
2022-09-06T04:33:34.355Z,8.00
2022-09-06T04:36:03.398Z,7.88
2022-09-06T04:38:36.639Z,8.93
2022-09-06T04:41:06.132Z,7.90
2022-09-06T04:43:42.343Z,8.65
2022-09-06T04:46:25.400Z,8.85
2022-09-06T04:52:06.757Z,7.95
2022-09-06T04:54:36.663Z,7.63
2022-09-06T04:57:05.958Z,9.80
2022-09-06T04:59:39.583Z,7.63
2022-09-06T05:02:08.199Z,7.53
2022-09-06T05:04:34.893Z,8.70
2022-09-06T05:07:07.996Z,7.32
2022-09-06T05:10:03.683Z,8.30
2022-09-06T05:12:44.409Z,8.02
2022-09-06T05:26:07.527Z,7.10
2022-09-06T05:28:38.558Z,8.30
2022-09-06T05:31:23.798Z,7.35
2022-09-06T05:33:58.782Z,7.60
2022-09-06T05:36:28.391Z,7.97
2022-09-06T05:41:39.634Z,7.43
2022-09-06T05:44:14.548Z,6.80
2022-09-06T05:46:49.620Z,7.68
2022-09-06T05:52:26.141Z,7.38
2022-09-06T05:55:00.655Z,7.57
2022-09-06T05:57:29.415Z,7.63
2022-09-06T06:01:19.418Z,6.53
2022-09-06T06:03:57.000Z,7.82
2022-09-06T06:06:25.553Z,7.15
2022-09-06T06:08:52.347Z,6.20
2022-09-06T06:11:20.733Z,7.10
2022-09-06T06:13:50.761Z,6.13
2022-09-06T06:16:19.467Z,7.00
2022-09-06T06:18:54.518Z,6.22
2022-09-06T06:21:27.193Z,7.50
2022-09-06T06:23:59.855Z,6.55
2022-09-06T06:26:38.437Z,6.97
2022-09-06T06:34:44.325Z,6.78
2022-09-06T06:37:11.907Z,6.47
2022-09-06T06:39:38.812Z,7.22
2022-09-06T06:42:07.462Z,6.65
2022-09-06T06:44:34.237Z,7.20
2022-09-06T06:49:54.485Z,5.78
2022-09-06T06:55:04.180Z,4.93
2022-09-06T06:57:30.875Z,5.15
2022-09-06T06:59:58.353Z,4.75
2022-09-06T07:02:26.025Z,4.03
2022-09-06T07:04:53.527Z,3.60
2022-09-06T07:07:37.923Z,3.72
2022-09-06T07:12:57.466Z,3.47
2022-09-06T07:15:24.332Z,3.45
2022-09-06T07:17:53.631Z,2.95
2022-09-06T07:20:22.255Z,3.25
2022-09-06T07:25:47.542Z,3.45
2022-09-06T07:28:14.397Z,3.92
2022-09-06T07:30:42.349Z,3.75
2022-09-06T07:33:09.363Z,4.18
2022-09-06T07:36:20.585Z,4.43
2022-09-06T07:38:51.708Z,4.35
2022-09-06T07:41:22.033Z,5.22
2022-09-06T07:43:52.373Z,4.50
2022-09-06T07:46:22.980Z,4.78
2022-09-06T07:48:50.220Z,5.38
2022-09-06T07:51:26.315Z,4.72
2022-09-06T08:04:15.278Z,3.92
2022-09-06T08:09:39.891Z,4.35
2022-09-06T08:12:07.544Z,5.40
2022-09-06T08:14:35.046Z,4.55
2022-09-06T08:17:03.443Z,5.55
2022-09-06T08:24:12.644Z,4.28
2022-09-06T08:26:40.832Z,4.68
2022-09-06T08:29:09.252Z,4.55
2022-09-06T08:31:38.631Z,4.25
2022-09-06T08:34:06.391Z,4.65
2022-09-06T08:36:33.936Z,4.97
2022-09-06T08:39:03.986Z,3.60
2022-09-06T08:41:46.332Z,4.85
2022-09-06T08:47:08.650Z,4.90
2022-09-06T08:49:40.272Z,5.05
2022-09-06T08:52:23.027Z,5.82
2022-09-06T08:55:11.167Z,5.95
2022-09-06T08:58:01.414Z,7.82
2022-09-06T09:00:34.802Z,7.22
2022-09-06T09:03:18.321Z,6.43
2022-09-06T09:06:10.417Z,5.80
2022-09-06T09:11:26.454Z,4.60
2022-09-06T09:14:02.148Z,4.70
2022-09-06T09:16:33.942Z,4.13
2022-09-06T09:19:08.328Z,4.55
2022-09-06T09:21:45.221Z,3.38
2022-09-06T09:24:15.755Z,3.17
2022-09-06T09:26:57.942Z,2.85
2022-09-06T09:29:29.423Z,3.38
2022-09-06T09:31:57.556Z,3.58
2022-09-06T09:34:30.830Z,3.08
2022-09-06T09:40:36.140Z,2.90
2022-09-06T09:43:37.283Z,2.35
2022-09-06T09:46:22.536Z,1.77
2022-09-06T09:49:08.880Z,2.20
2022-09-06T09:51:45.155Z,2.45
2022-09-06T09:54:14.310Z,2.72
2022-09-06T09:56:46.189Z,1.92
2022-09-06T09:59:45.018Z,2.88
2022-09-06T10:02:33.406Z,2.15
2022-09-06T10:05:14.718Z,1.95
2022-09-06T10:07:50.306Z,1.85
2022-09-06T10:10:28.455Z,1.90
2022-09-06T10:13:20.158Z,2.20
2022-09-06T10:15:48.382Z,2.03
2022-09-06T10:18:20.985Z,1.90
2022-09-06T10:21:10.445Z,1.88
2022-09-06T10:26:45.713Z,3.67
2022-09-06T10:29:14.367Z,1.55
2022-09-06T10:31:55.961Z,1.55
2022-09-06T10:34:31.806Z,1.60
2022-09-06T10:37:43.538Z,2.00
2022-09-06T10:40:12.613Z,2.00
2022-09-06T10:42:46.051Z,2.47
2022-09-06T10:45:38.351Z,1.80
2022-09-06T10:48:26.651Z,1.80
2022-09-06T10:51:21.322Z,2.40
2022-09-06T10:54:07.646Z,1.77
2022-09-06T10:56:51.934Z,2.28
2022-09-06T10:59:37.411Z,2.13
2022-09-06T11:02:48.625Z,1.83
2022-09-06T11:05:40.004Z,1.85
2022-09-06T11:11:17.355Z,1.80
2022-09-06T11:13:44.468Z,1.50
2022-09-06T11:16:26.370Z,1.10
2022-09-06T11:19:03.336Z,1.42
2022-09-06T11:22:08.352Z,1.60
2022-09-06T11:24:43.968Z,1.63
2022-09-06T11:27:31.893Z,1.27
2022-09-06T11:30:01.753Z,1.63
2022-09-06T11:32:39.392Z,2.45
2022-09-06T11:35:25.601Z,1.80
2022-09-06T11:38:18.872Z,1.80
2022-09-06T11:40:49.372Z,1.70
2022-09-06T11:43:19.194Z,2.00
2022-09-06T11:45:46.338Z,2.05
2022-09-06T11:48:26.430Z,2.75
2022-09-06T11:50:59.371Z,2.30
2022-09-06T11:53:34.651Z,2.35
2022-09-06T11:56:01.270Z,1.70
2022-09-06T11:58:44.906Z,2.03
2022-09-06T12:01:19.047Z,1.67
2022-09-06T12:04:05.580Z,1.90
2022-09-06T12:07:06.684Z,2.22
2022-09-06T12:09:39.079Z,1.38
2022-09-06T12:12:14.756Z,1.50
2022-09-06T12:14:47.287Z,1.75
2022-09-06T12:17:14.111Z,1.40
2022-09-06T12:19:56.539Z,1.75
2022-09-06T12:22:29.520Z,1.67
2022-09-06T12:27:57.987Z,0.90
2022-09-06T12:30:43.830Z,0.98
2022-09-06T12:33:36.316Z,1.75
2022-09-06T12:36:33.813Z,1.65
2022-09-06T12:39:09.046Z,1.40
2022-09-06T12:41:43.657Z,1.20
2022-09-06T12:44:12.950Z,0.90
2022-09-06T12:46:47.524Z,1.80
2022-09-06T12:49:16.935Z,1.52
2022-09-06T12:51:43.840Z,1.35
2022-09-06T12:54:23.355Z,1.02
2022-09-06T12:56:51.197Z,1.10
2022-09-06T12:59:25.185Z,1.20
2022-09-06T13:02:05.758Z,1.20
2022-09-06T13:04:39.947Z,1.60
2022-09-06T13:07:14.712Z,1.02
2022-09-06T13:09:46.667Z,2.10
2022-09-06T13:12:42.589Z,1.35
2022-09-06T13:15:19.665Z,1.55
2022-09-06T13:17:46.422Z,2.22
2022-09-06T13:20:29.401Z,1.98
2022-09-06T13:23:13.203Z,1.58
2022-09-06T13:25:53.173Z,1.60
2022-09-06T13:28:34.006Z,3.63
2022-09-06T13:31:19.421Z,1.02
2022-09-06T13:33:58.351Z,1.08
2022-09-06T13:36:32.403Z,1.08
2022-09-06T13:39:06.308Z,1.33
2022-09-06T13:41:36.252Z,1.38
2022-09-06T13:44:11.717Z,1.38
2022-09-06T13:46:38.493Z,1.25
2022-09-06T13:49:08.594Z,1.00
2022-09-06T13:51:38.021Z,1.58
2022-09-06T13:54:05.873Z,1.77
2022-09-06T13:56:32.803Z,0.70
2022-09-06T13:58:59.533Z,0.88
2022-09-06T14:01:26.398Z,0.80
2022-09-06T14:03:53.624Z,0.40
2022-09-06T14:06:20.660Z,0.50
2022-09-06T14:09:06.438Z,0.47
2022-09-06T14:11:34.692Z,1.73
2022-09-06T14:14:01.411Z,0.60
2022-09-06T14:16:28.200Z,0.80
2022-09-06T14:18:55.018Z,0.70
2022-09-06T14:21:21.763Z,0.60
2022-09-06T14:23:52.373Z,0.90
2022-09-06T14:26:21.154Z,0.60
2022-09-06T14:28:48.475Z,0.98
2022-09-06T14:31:18.369Z,1.00
2022-09-06T14:33:45.401Z,0.98
2022-09-06T14:36:14.795Z,1.30
2022-09-06T14:38:43.679Z,0.77
2022-09-06T14:41:11.394Z,0.82
2022-09-06T14:43:38.134Z,1.70
2022-09-06T14:46:06.930Z,1.08
2022-09-06T14:48:35.307Z,0.77
2022-09-06T14:51:26.074Z,1.13
2022-09-06T14:53:59.306Z,0.55
2022-09-06T14:56:27.202Z,1.02
2022-09-06T14:58:57.509Z,1.13
2022-09-06T15:01:28.649Z,1.02
2022-09-06T15:04:02.420Z,1.10
2022-09-06T15:06:31.227Z,1.48
2022-09-06T15:08:59.515Z,1.40
2022-09-06T15:11:39.502Z,1.48
2022-09-06T15:14:09.012Z,1.10
2022-09-06T15:16:36.292Z,1.40
2022-09-06T15:19:03.312Z,0.80
2022-09-06T15:21:31.430Z,1.20
2022-09-06T15:23:59.029Z,1.38
2022-09-06T15:26:25.822Z,1.42
2022-09-06T15:28:52.635Z,0.90
2022-09-06T15:31:20.146Z,1.00
2022-09-06T15:33:48.992Z,1.65
2022-09-06T15:36:16.424Z,1.35
2022-09-06T15:38:45.430Z,1.30
2022-09-06T15:41:15.216Z,0.88
2022-09-06T15:43:46.997Z,0.73
2022-09-06T15:46:21.188Z,0.63
2022-09-06T15:48:50.708Z,1.02
2022-09-06T15:51:20.225Z,0.93
2022-09-06T15:53:47.828Z,1.42
2022-09-06T15:56:17.213Z,1.45
2022-09-06T15:58:47.874Z,0.95
2022-09-06T16:01:17.931Z,0.90
2022-09-06T16:03:48.790Z,1.65
2022-09-06T16:08:56.141Z,0.95
2022-09-06T16:11:22.820Z,1.90
2022-09-06T16:13:49.834Z,1.17
2022-09-06T16:16:17.819Z,1.60
2022-09-06T16:18:47.402Z,1.05
2022-09-06T16:21:24.049Z,0.98
2022-09-06T16:23:56.720Z,1.00
2022-09-06T16:26:26.712Z,0.80
2022-09-06T16:28:54.130Z,1.85
2022-09-06T16:31:22.296Z,0.80
2022-09-06T16:33:55.970Z,0.70
2022-09-06T16:36:23.026Z,0.70
2022-09-06T16:38:50.467Z,1.25
2022-09-06T16:41:21.304Z,0.70
2022-09-06T16:43:57.354Z,0.88
2022-09-06T16:46:28.974Z,1.23
2022-09-06T16:49:26.292Z,1.20
2022-09-06T16:51:53.224Z,0.98
2022-09-06T16:54:20.087Z,1.50
2022-09-06T16:56:47.080Z,2.45
2022-09-06T16:59:17.171Z,2.00
2022-09-06T17:01:45.216Z,1.10
2022-09-06T17:04:13.059Z,1.00
2022-09-06T17:06:44.687Z,1.98
2022-09-06T17:09:17.165Z,1.70
2022-09-06T17:11:43.920Z,0.93
2022-09-06T17:14:11.512Z,1.15
2022-09-06T17:16:56.892Z,1.25
2022-09-06T17:19:51.911Z,1.05
2022-09-06T17:22:18.777Z,1.33
2022-09-06T17:24:45.424Z,1.52
2022-09-06T17:27:12.495Z,1.13
2022-09-06T17:29:40.145Z,0.85
2022-09-06T17:32:10.318Z,0.98
2022-09-06T17:34:39.166Z,1.48
2022-09-06T17:37:06.149Z,1.27
2022-09-06T17:39:32.916Z,0.85
2022-09-06T17:42:02.175Z,1.70
2022-09-06T17:44:29.340Z,1.02
2022-09-06T17:47:12.013Z,1.50
2022-09-06T17:49:39.663Z,0.95
2022-09-06T17:52:06.406Z,1.20
2022-09-06T17:57:36.610Z,1.00
2022-09-06T18:00:04.531Z,1.02
2022-09-06T18:02:31.277Z,1.23
2022-09-06T18:04:58.100Z,0.90
2022-09-06T18:07:24.774Z,1.27
2022-09-06T18:09:51.472Z,1.13
2022-09-06T18:12:20.056Z,0.98
2022-09-06T18:14:50.660Z,1.20
2022-09-06T18:17:20.812Z,1.33
2022-09-06T18:19:47.569Z,1.00
2022-09-06T18:22:14.253Z,1.33
2022-09-06T18:24:40.981Z,1.00
2022-09-06T18:27:07.731Z,1.50
2022-09-06T18:29:34.664Z,1.38
2022-09-06T18:32:01.571Z,1.20
2022-09-06T18:34:28.306Z,1.30
2022-09-06T18:36:55.411Z,1.08
2022-09-06T18:39:22.765Z,1.67
2022-09-06T18:42:02.208Z,1.83
2022-09-06T18:44:32.256Z,2.38
2022-09-06T18:47:05.704Z,1.92
2022-09-06T18:49:33.919Z,1.05
2022-09-06T18:52:02.270Z,1.48
2022-09-06T18:54:29.759Z,1.35
2022-09-06T18:56:57.013Z,1.08
2022-09-06T18:59:24.068Z,0.90
2022-09-06T19:01:51.070Z,1.88
2022-09-06T19:04:18.020Z,1.30
2022-09-06T19:06:45.210Z,1.52
2022-09-06T19:09:14.673Z,1.40
2022-09-06T19:11:45.699Z,2.15
2022-09-06T19:14:14.090Z,1.50
2022-09-06T19:16:42.039Z,1.33
2022-09-06T19:19:09.962Z,1.85
2022-09-06T19:21:41.738Z,1.15
2022-09-06T19:24:10.933Z,2.10
2022-09-06T19:26:42.278Z,1.40
2022-09-06T19:29:13.747Z,1.63
2022-09-06T19:31:40.691Z,1.90
2022-09-06T19:34:07.905Z,1.67
2022-09-06T19:36:35.228Z,2.03
2022-09-06T19:39:06.452Z,1.50
2022-09-06T19:41:37.551Z,1.65
2022-09-06T19:44:08.046Z,1.00
2022-09-06T19:46:35.533Z,1.50
2022-09-06T19:49:02.638Z,4.60
2022-09-06T19:51:29.823Z,0.82
2022-09-06T19:54:02.858Z,1.83
2022-09-06T19:56:33.332Z,1.55
2022-09-06T19:59:08.871Z,1.00
2022-09-06T20:01:40.268Z,1.38
2022-09-06T20:04:10.723Z,1.38
2022-09-06T20:06:38.567Z,1.38
2022-09-06T20:09:08.968Z,1.75
2022-09-06T20:11:55.021Z,1.40
2022-09-06T20:14:22.867Z,1.27
2022-09-06T20:16:52.007Z,2.00
2022-09-06T20:19:27.127Z,1.20
2022-09-06T20:22:00.627Z,1.55
2022-09-06T20:24:28.076Z,1.17
2022-09-06T20:26:54.891Z,1.83
2022-09-06T20:29:21.780Z,1.42
2022-09-06T20:31:48.645Z,1.63
2022-09-06T20:34:18.406Z,1.38
2022-09-06T20:36:47.030Z,2.05
2022-09-06T20:39:14.718Z,1.52
2022-09-06T20:41:41.678Z,1.90
2022-09-06T20:44:08.348Z,1.75
2022-09-06T20:47:02.938Z,1.35
2022-09-06T20:49:29.680Z,2.15
2022-09-06T20:55:18.472Z,2.05
2022-09-06T20:57:59.832Z,1.48
2022-09-06T21:00:26.466Z,1.60
2022-09-06T21:02:53.170Z,1.70
2022-09-06T21:05:19.804Z,3.60
2022-09-06T21:07:46.546Z,1.90
2022-09-06T21:10:13.275Z,1.52
2022-09-06T21:12:40.363Z,1.48
2022-09-06T21:15:07.239Z,1.45
2022-09-06T21:17:33.884Z,1.80
2022-09-06T21:20:00.561Z,2.00
2022-09-06T21:22:28.595Z,1.63
2022-09-06T21:24:55.407Z,2.13
2022-09-06T21:27:22.091Z,1.17
2022-09-06T21:29:48.708Z,1.73
2022-09-06T21:32:15.392Z,1.88
2022-09-06T21:34:42.151Z,2.13
2022-09-06T21:37:08.856Z,1.48
2022-09-06T21:39:35.711Z,1.98
2022-09-06T21:42:02.540Z,1.58
2022-09-06T21:44:29.330Z,1.98
2022-09-06T21:46:56.662Z,1.35
2022-09-06T21:49:24.072Z,1.45
2022-09-06T21:51:50.763Z,1.75
2022-09-06T21:54:17.419Z,1.80
2022-09-06T21:56:44.718Z,1.48
2022-09-06T21:59:11.509Z,1.70
2022-09-06T22:01:40.171Z,1.40
2022-09-06T22:04:07.564Z,3.67
2022-09-06T22:06:36.573Z,1.58
2022-09-06T22:09:08.441Z,1.05
2022-09-06T22:11:35.736Z,1.38
2022-09-06T22:14:06.349Z,1.25
2022-09-06T22:16:35.723Z,1.45
2022-09-06T22:19:07.319Z,1.50
2022-09-06T22:21:34.673Z,1.38
2022-09-06T22:24:06.802Z,1.70
2022-09-06T22:26:35.216Z,1.50
2022-09-06T22:29:04.722Z,1.70
2022-09-06T22:31:33.404Z,0.95
2022-09-06T22:34:00.468Z,1.08
2022-09-06T22:36:28.011Z,1.48
2022-09-06T22:38:57.947Z,1.55
2022-09-06T22:41:30.499Z,1.13
2022-09-06T22:44:03.700Z,1.38
2022-09-06T22:46:31.558Z,1.23
2022-09-06T22:48:58.731Z,1.48
2022-09-06T22:51:25.732Z,1.05
2022-09-06T22:53:53.797Z,0.88
2022-09-06T22:56:21.182Z,1.98
2022-09-06T22:58:47.934Z,1.20
2022-09-06T23:01:16.175Z,1.30
2022-09-06T23:03:44.064Z,1.17
2022-09-06T23:06:11.340Z,1.38
2022-09-06T23:08:39.672Z,1.13
2022-09-06T23:11:15.016Z,0.88
2022-09-06T23:13:47.158Z,2.10
2022-09-06T23:16:19.140Z,1.60
2022-09-06T23:18:47.883Z,1.08
2022-09-06T23:21:18.172Z,1.45
2022-09-06T23:23:45.685Z,1.17
2022-09-06T23:26:15.274Z,1.00
2022-09-06T23:28:42.215Z,1.83
2022-09-06T23:31:11.219Z,1.30
2022-09-06T23:33:38.839Z,0.68
2022-09-06T23:36:12.348Z,1.13
2022-09-06T23:38:40.673Z,2.47
2022-09-06T23:41:10.004Z,0.90
2022-09-06T23:43:37.142Z,1.20
2022-09-06T23:46:07.000Z,0.80
2022-09-06T23:48:34.576Z,1.58
2022-09-06T23:51:01.513Z,1.20
2022-09-06T23:53:28.667Z,1.75
2022-09-06T23:55:55.711Z,1.60
2022-09-06T23:58:22.500Z,1.00
